createdAt,value
2023-07-22T00:01:25.028Z,16.45
2023-07-22T00:03:51.448Z,16.49
2023-07-22T00:06:17.904Z,16.56
2023-07-22T00:08:44.323Z,16.42
2023-07-22T00:11:10.692Z,16.55
2023-07-22T00:13:37.109Z,16.37
2023-07-22T00:16:05.351Z,16.49
2023-07-22T00:18:32.176Z,16.70
2023-07-22T00:20:58.572Z,16.83
2023-07-22T00:23:25.443Z,16.52
2023-07-22T00:25:51.963Z,16.25
2023-07-22T00:28:19.581Z,16.02
2023-07-22T00:30:46.023Z,16.26
2023-07-22T00:33:13.495Z,16.07
2023-07-22T00:35:39.819Z,16.10
2023-07-22T00:38:06.655Z,16.16
2023-07-22T00:40:33.223Z,16.19
2023-07-22T00:43:00.636Z,16.22
2023-07-22T00:45:27.050Z,16.39
2023-07-22T00:47:54.016Z,15.98
2023-07-22T00:50:20.429Z,15.96
2023-07-22T00:52:46.850Z,16.08
2023-07-22T00:55:13.351Z,16.06
2023-07-22T00:57:39.760Z,16.15
2023-07-22T01:00:07.150Z,15.82
2023-07-22T01:02:35.847Z,15.85
2023-07-22T01:05:02.520Z,16.18
2023-07-22T01:07:29.146Z,16.03
2023-07-22T01:10:01.383Z,16.11
2023-07-22T01:12:27.793Z,15.78
2023-07-22T01:14:54.207Z,15.69
2023-07-22T01:17:20.708Z,15.83
2023-07-22T01:19:48.802Z,15.94
2023-07-22T01:22:16.051Z,16.09
2023-07-22T01:24:42.808Z,15.27
2023-07-22T01:27:11.075Z,15.33
2023-07-22T01:29:37.712Z,15.04
2023-07-22T01:32:04.524Z,14.95
2023-07-22T01:34:32.656Z,15.51
2023-07-22T01:36:59.303Z,15.59
2023-07-22T01:39:25.640Z,15.72
2023-07-22T01:41:52.027Z,15.91
2023-07-22T01:44:18.367Z,16.15
2023-07-22T01:46:44.739Z,16.07
2023-07-22T01:49:13.459Z,16.18
2023-07-22T01:51:41.536Z,16.02
2023-07-22T01:54:08.503Z,15.95
2023-07-22T01:56:34.856Z,16.03
2023-07-22T01:59:01.229Z,15.93
2023-07-22T02:01:29.215Z,15.97
2023-07-22T02:03:56.555Z,15.91
2023-07-22T02:06:23.352Z,15.79
2023-07-22T02:08:50.325Z,16.16
2023-07-22T02:11:18.019Z,15.82
2023-07-22T02:13:44.356Z,15.44
2023-07-22T02:16:12.777Z,15.42
2023-07-22T02:18:39.313Z,15.63
2023-07-22T02:21:05.724Z,15.30
2023-07-22T02:23:32.205Z,15.24
2023-07-22T02:25:58.668Z,15.58
2023-07-22T02:28:25.785Z,15.53
2023-07-22T02:30:53.443Z,15.54
2023-07-22T02:33:20.652Z,15.25
2023-07-22T02:35:48.244Z,15.19
2023-07-22T02:38:15.398Z,15.17
2023-07-22T02:40:42.055Z,15.25
2023-07-22T02:43:08.649Z,15.40
2023-07-22T02:45:35.395Z,15.28
2023-07-22T02:48:02.139Z,14.92
2023-07-22T02:50:28.722Z,15.08
2023-07-22T02:52:55.120Z,14.65
2023-07-22T02:55:21.484Z,15.21
2023-07-22T02:57:48.640Z,15.27
2023-07-22T03:00:24.380Z,14.76
2023-07-22T03:03:02.555Z,15.26
2023-07-22T03:05:30.063Z,15.48
2023-07-22T03:07:56.873Z,15.35
2023-07-22T03:10:23.598Z,15.21
2023-07-22T03:12:50.155Z,15.37
2023-07-22T03:15:16.804Z,15.37
2023-07-22T03:17:43.244Z,15.25
2023-07-22T03:20:15.136Z,15.10
2023-07-22T03:22:42.681Z,14.95
2023-07-22T03:25:13.109Z,14.69
2023-07-22T03:27:39.866Z,14.93
2023-07-22T03:30:11.687Z,14.70
2023-07-22T03:32:38.193Z,15.20
2023-07-22T03:35:05.041Z,14.99
2023-07-22T03:37:31.401Z,15.15
2023-07-22T03:39:57.794Z,15.38
2023-07-22T03:42:24.192Z,15.38
2023-07-22T03:44:50.559Z,15.43
2023-07-22T03:47:17.011Z,15.14
2023-07-22T03:49:43.433Z,15.05
2023-07-22T03:52:09.847Z,14.68
2023-07-22T03:54:36.202Z,15.04
2023-07-22T03:57:02.591Z,14.71
2023-07-22T03:59:29.770Z,15.00
2023-07-22T04:01:56.179Z,14.94
2023-07-22T04:04:22.599Z,14.78
2023-07-22T04:06:49.059Z,15.04
2023-07-22T04:09:15.432Z,14.93
2023-07-22T04:11:41.760Z,14.82
2023-07-22T04:14:08.124Z,15.06
2023-07-22T04:16:34.515Z,15.03
2023-07-22T04:19:00.865Z,15.16
2023-07-22T04:21:27.256Z,15.45
2023-07-22T04:23:54.620Z,15.54
2023-07-22T04:26:21.404Z,15.44
2023-07-22T04:28:47.803Z,15.30
2023-07-22T04:31:14.171Z,15.41
2023-07-22T04:33:42.557Z,15.86
2023-07-22T04:36:08.960Z,15.43
2023-07-22T04:38:35.342Z,15.36
2023-07-22T04:41:04.767Z,14.81
2023-07-22T04:43:31.374Z,14.94
2023-07-22T04:45:57.739Z,14.84
2023-07-22T04:48:24.521Z,15.50
2023-07-22T04:50:51.246Z,15.43
2023-07-22T04:53:18.677Z,15.15
2023-07-22T04:55:45.044Z,15.52
2023-07-22T04:58:11.944Z,15.60
2023-07-22T05:00:38.931Z,15.43
2023-07-22T05:03:05.876Z,15.55
2023-07-22T05:05:33.001Z,15.54
2023-07-22T05:07:59.384Z,15.42
2023-07-22T05:10:25.779Z,15.69
2023-07-22T05:12:52.151Z,15.47
2023-07-22T05:15:18.618Z,15.24
2023-07-22T05:17:45.071Z,15.61
2023-07-22T05:20:11.879Z,15.78
2023-07-22T05:22:38.847Z,15.66
2023-07-22T05:25:06.681Z,15.66
2023-07-22T05:27:33.449Z,15.88
2023-07-22T05:29:59.961Z,16.17
2023-07-22T05:32:33.495Z,15.93
2023-07-22T05:35:01.088Z,16.01
2023-07-22T05:37:27.498Z,15.91
2023-07-22T05:39:53.893Z,15.95
2023-07-22T05:42:20.281Z,15.79
2023-07-22T05:44:46.631Z,15.49
2023-07-22T05:47:12.991Z,16.18
2023-07-22T05:49:39.351Z,16.03
2023-07-22T05:52:06.269Z,16.10
2023-07-22T05:54:32.766Z,16.15
2023-07-22T05:56:59.182Z,15.90
2023-07-22T05:59:25.532Z,15.86
2023-07-22T06:01:52.013Z,15.95
2023-07-22T06:04:18.593Z,16.03
2023-07-22T06:06:45.098Z,15.78
2023-07-22T06:09:11.850Z,16.36
2023-07-22T06:11:38.212Z,16.63
2023-07-22T06:14:04.600Z,16.87
2023-07-22T06:16:30.970Z,17.43
2023-07-22T06:18:57.377Z,17.40
2023-07-22T06:21:23.749Z,17.72
2023-07-22T06:23:50.075Z,17.79
2023-07-22T06:26:16.444Z,17.40
2023-07-22T06:28:43.393Z,17.19
2023-07-22T06:31:09.774Z,17.57
2023-07-22T06:33:37.105Z,17.41
2023-07-22T06:36:03.708Z,17.50
2023-07-22T06:38:30.100Z,17.71
2023-07-22T06:40:56.432Z,17.99
2023-07-22T06:43:22.928Z,17.76
2023-07-22T06:45:49.319Z,17.43
2023-07-22T06:48:15.729Z,17.80
2023-07-22T06:50:48.543Z,17.80
2023-07-22T06:53:15.928Z,17.77
2023-07-22T06:55:52.455Z,17.89
2023-07-22T06:58:20.424Z,18.17
2023-07-22T07:00:46.907Z,18.48
2023-07-22T07:03:13.398Z,18.39
2023-07-22T07:05:42.463Z,17.97
2023-07-22T07:08:11.353Z,17.93
2023-07-22T07:10:39.270Z,18.49
2023-07-22T07:13:05.701Z,18.34
2023-07-22T07:15:32.064Z,18.49
2023-07-22T07:17:58.476Z,18.91
2023-07-22T07:20:24.877Z,18.04
2023-07-22T07:22:51.857Z,18.60
2023-07-22T07:25:18.345Z,18.47
2023-07-22T07:27:44.710Z,18.29
2023-07-22T07:30:11.576Z,19.14
2023-07-22T07:32:38.019Z,18.82
2023-07-22T07:35:05.212Z,18.57
2023-07-22T07:37:33.339Z,19.46
2023-07-22T07:40:00.780Z,19.51
2023-07-22T07:42:30.234Z,19.85
2023-07-22T07:44:56.696Z,20.64
2023-07-22T07:47:28.983Z,19.42
2023-07-22T07:49:55.435Z,19.29
2023-07-22T07:52:21.797Z,19.55
2023-07-22T07:54:54.690Z,19.83
2023-07-22T07:57:21.185Z,19.65
2023-07-22T07:59:47.555Z,20.16
2023-07-22T08:02:13.983Z,19.23
2023-07-22T08:04:40.389Z,20.47
2023-07-22T08:07:07.463Z,20.47
2023-07-22T08:09:33.810Z,20.68
2023-07-22T08:12:00.161Z,20.65
2023-07-22T08:14:26.538Z,20.41
2023-07-22T08:16:52.878Z,20.90
2023-07-22T08:19:19.254Z,21.00
2023-07-22T08:21:45.597Z,20.68
2023-07-22T08:24:11.989Z,21.32
2023-07-22T08:26:38.440Z,20.42
2023-07-22T08:29:04.812Z,20.63
2023-07-22T08:31:31.220Z,21.04
2023-07-22T08:33:57.991Z,20.46
2023-07-22T08:36:24.392Z,20.55
2023-07-22T08:38:50.786Z,20.61
2023-07-22T08:41:17.367Z,20.72
2023-07-22T08:43:46.323Z,21.60
2023-07-22T08:46:13.605Z,19.77
2023-07-22T08:48:43.497Z,19.68
2023-07-22T08:51:17.559Z,20.27
2023-07-22T08:54:04.765Z,19.90
2023-07-22T08:56:34.407Z,20.02
2023-07-22T08:59:01.514Z,20.42
2023-07-22T09:01:28.377Z,21.51
2023-07-22T09:03:55.553Z,20.80
2023-07-22T09:06:22.054Z,21.43
2023-07-22T09:08:48.626Z,20.16
2023-07-22T09:11:16.338Z,20.06
2023-07-22T09:13:45.787Z,20.54
2023-07-22T09:16:12.435Z,20.78
2023-07-22T09:18:38.809Z,20.93
2023-07-22T09:21:05.160Z,20.68
2023-07-22T09:23:36.427Z,19.76
2023-07-22T09:26:10.083Z,20.05
2023-07-22T09:29:08.954Z,19.73
2023-07-22T09:31:50.048Z,20.54
2023-07-22T09:34:16.405Z,20.47
2023-07-22T09:36:59.012Z,19.23
2023-07-22T09:39:25.596Z,19.15
2023-07-22T09:41:53.790Z,18.79
2023-07-22T09:44:20.247Z,20.54
2023-07-22T09:46:50.618Z,21.94
2023-07-22T09:49:19.068Z,23.04
2023-07-22T09:52:00.861Z,23.31
2023-07-22T09:54:32.148Z,22.60
2023-07-22T09:56:58.878Z,22.92
2023-07-22T09:59:25.375Z,23.16
2023-07-22T10:01:52.774Z,23.24
2023-07-22T10:04:22.780Z,22.45
2023-07-22T10:06:49.821Z,23.19
2023-07-22T10:09:16.411Z,23.06
2023-07-22T10:11:42.952Z,23.72
2023-07-22T10:14:09.365Z,23.82
2023-07-22T10:16:37.033Z,23.75
2023-07-22T10:19:04.018Z,24.46
2023-07-22T10:21:31.645Z,24.20
2023-07-22T10:23:58.231Z,23.06
2023-07-22T10:26:40.516Z,22.45
2023-07-22T10:29:11.379Z,21.60
2023-07-22T10:31:37.765Z,21.11
2023-07-22T10:34:04.430Z,20.30
2023-07-22T10:36:32.033Z,20.65
2023-07-22T10:39:03.307Z,20.14
2023-07-22T10:41:30.850Z,19.67
2023-07-22T10:43:59.082Z,19.09
2023-07-22T10:46:36.423Z,17.29
2023-07-22T10:49:17.491Z,16.95
2023-07-22T10:51:52.293Z,16.57
2023-07-22T10:54:37.541Z,16.65
2023-07-22T10:57:05.671Z,17.39
2023-07-22T10:59:35.444Z,17.24
2023-07-22T11:02:01.856Z,17.10
2023-07-22T11:07:06.816Z,17.36
2023-07-22T11:09:37.700Z,18.08
2023-07-22T11:12:14.350Z,18.11
2023-07-22T11:14:47.093Z,18.13
2023-07-22T11:17:13.558Z,18.89
2023-07-22T11:19:40.993Z,20.42
2023-07-22T11:22:07.680Z,20.83
2023-07-22T11:24:36.773Z,21.51
2023-07-22T11:27:05.323Z,21.82
2023-07-22T11:29:32.456Z,22.10
2023-07-22T11:31:58.960Z,22.33
2023-07-22T11:34:25.915Z,22.08
2023-07-22T11:36:53.624Z,21.80
2023-07-22T11:39:21.525Z,22.04
2023-07-22T11:41:49.079Z,21.48
2023-07-22T11:44:17.684Z,22.50
2023-07-22T11:47:06.641Z,22.94
2023-07-22T11:49:34.409Z,22.46
2023-07-22T11:52:08.482Z,21.69
2023-07-22T11:54:39.032Z,22.23
2023-07-22T11:57:18.848Z,22.31
2023-07-22T11:59:50.616Z,22.41
2023-07-22T12:02:22.266Z,22.46
2023-07-22T12:04:58.014Z,21.81
2023-07-22T12:07:25.872Z,21.48
2023-07-22T12:09:53.262Z,22.56
2023-07-22T12:12:19.755Z,23.17
2023-07-22T12:14:46.184Z,22.31
2023-07-22T12:17:12.598Z,21.73
2023-07-22T12:19:38.974Z,20.88
2023-07-22T12:22:05.332Z,21.18
2023-07-22T12:24:31.734Z,21.38
2023-07-22T12:26:58.182Z,21.60
2023-07-22T12:29:24.785Z,20.73
2023-07-22T12:31:51.222Z,20.56
2023-07-22T12:34:17.624Z,20.78
2023-07-22T12:36:43.981Z,20.67
2023-07-22T12:39:10.390Z,20.90
2023-07-22T12:41:36.728Z,21.17
2023-07-22T12:44:03.397Z,21.26
2023-07-22T12:46:29.840Z,21.06
2023-07-22T12:48:56.210Z,20.98
2023-07-22T12:51:22.658Z,20.91
2023-07-22T12:53:49.131Z,20.24
2023-07-22T12:56:15.472Z,20.41
2023-07-22T12:58:41.813Z,20.26
2023-07-22T13:01:08.813Z,20.00
2023-07-22T13:03:35.308Z,20.25
2023-07-22T13:06:01.765Z,20.09
2023-07-22T13:08:28.101Z,20.22
2023-07-22T13:10:54.438Z,19.97
2023-07-22T13:13:20.891Z,20.23
2023-07-22T13:15:47.302Z,20.33
2023-07-22T13:18:14.757Z,20.47
2023-07-22T13:20:41.612Z,20.16
2023-07-22T13:23:08.421Z,20.03
2023-07-22T13:25:34.846Z,19.13
2023-07-22T13:28:01.249Z,18.81
2023-07-22T13:30:27.643Z,18.39
2023-07-22T13:32:54.172Z,18.00
2023-07-22T13:35:21.021Z,18.03
2023-07-22T13:37:47.387Z,17.64
2023-07-22T13:40:13.886Z,17.71
2023-07-22T13:42:40.381Z,17.53
2023-07-22T13:45:07.390Z,17.52
2023-07-22T13:47:33.909Z,18.00
2023-07-22T13:50:00.314Z,17.95
2023-07-22T13:52:26.692Z,18.21
2023-07-22T13:54:53.087Z,18.08
2023-07-22T13:57:19.456Z,18.57
2023-07-22T13:59:45.814Z,19.53
2023-07-22T14:02:12.299Z,19.49
2023-07-22T14:04:39.488Z,19.40
2023-07-22T14:07:06.207Z,19.64
2023-07-22T14:09:32.598Z,18.96
2023-07-22T14:11:58.943Z,19.00
2023-07-22T14:14:29.597Z,18.80
2023-07-22T14:16:57.147Z,18.68
2023-07-22T14:19:24.864Z,18.69
2023-07-22T14:21:51.395Z,18.92
2023-07-22T14:24:17.836Z,18.82
2023-07-22T14:26:44.232Z,18.79
2023-07-22T14:29:10.640Z,18.64
2023-07-22T14:31:37.053Z,18.27
2023-07-22T14:34:03.461Z,18.37
2023-07-22T14:36:29.873Z,18.67
2023-07-22T14:38:56.967Z,18.45
2023-07-22T14:41:23.511Z,18.58
2023-07-22T14:43:49.905Z,18.82
2023-07-22T14:46:16.272Z,18.87
2023-07-22T14:48:43.577Z,18.83
2023-07-22T14:51:10.110Z,18.45
2023-07-22T14:53:36.503Z,18.75
2023-07-22T14:56:02.959Z,18.91
2023-07-22T14:58:29.320Z,19.03
2023-07-22T15:00:55.722Z,19.11
2023-07-22T15:03:22.163Z,19.38
2023-07-22T15:05:48.611Z,19.63
2023-07-22T15:08:14.980Z,19.02
2023-07-22T15:10:41.618Z,19.16
2023-07-22T15:13:08.093Z,19.36
2023-07-22T15:15:34.464Z,19.07
2023-07-22T15:18:00.963Z,19.28
2023-07-22T15:20:27.456Z,18.98
2023-07-22T15:22:53.937Z,18.85
2023-07-22T15:25:20.411Z,19.26
2023-07-22T15:27:46.767Z,19.04
2023-07-22T15:30:13.192Z,19.01
2023-07-22T15:32:39.800Z,19.39
2023-07-22T15:35:06.904Z,19.39
2023-07-22T15:37:33.283Z,19.20
2023-07-22T15:39:59.659Z,19.44
2023-07-22T15:42:26.075Z,19.53
2023-07-22T15:44:52.486Z,19.62
2023-07-22T15:47:19.028Z,19.33
2023-07-22T15:49:45.440Z,19.46
2023-07-22T15:52:11.851Z,19.33
2023-07-22T15:54:38.262Z,19.26
2023-07-22T15:57:04.752Z,19.54
2023-07-22T15:59:31.188Z,19.08
2023-07-22T16:01:57.546Z,19.53
2023-07-22T16:04:23.941Z,19.77
2023-07-22T16:06:50.279Z,19.68
2023-07-22T16:09:16.720Z,19.55
2023-07-22T16:11:43.074Z,19.13
2023-07-22T16:14:10.703Z,18.85
2023-07-22T16:16:38.479Z,19.11
2023-07-22T16:19:05.228Z,19.01
2023-07-22T16:21:31.588Z,18.86
2023-07-22T16:23:57.940Z,18.86
2023-07-22T16:26:24.307Z,18.58
2023-07-22T16:28:51.011Z,18.93
2023-07-22T16:31:17.430Z,18.66
2023-07-22T16:33:43.810Z,18.85
2023-07-22T16:36:10.163Z,19.11
2023-07-22T16:38:36.548Z,18.68
2023-07-22T16:41:02.955Z,18.89
2023-07-22T16:43:29.385Z,18.91
2023-07-22T16:45:55.879Z,18.59
2023-07-22T16:48:22.314Z,18.23
2023-07-22T16:50:48.686Z,17.90
2023-07-22T16:53:15.096Z,18.07
2023-07-22T16:55:41.820Z,18.20
2023-07-22T16:58:08.663Z,17.89
2023-07-22T17:00:35.197Z,18.21
2023-07-22T17:03:01.629Z,18.32
2023-07-22T17:05:28.100Z,18.58
2023-07-22T17:07:54.485Z,18.39
2023-07-22T17:10:20.851Z,18.03
2023-07-22T17:12:47.215Z,18.16
2023-07-22T17:15:14.880Z,18.29
2023-07-22T17:17:43.705Z,18.45
2023-07-22T17:20:11.831Z,18.63
2023-07-22T17:22:38.262Z,18.21
2023-07-22T17:25:04.963Z,18.35
2023-07-22T17:27:31.409Z,18.27
2023-07-22T17:29:57.801Z,18.21
2023-07-22T17:32:24.343Z,18.00
2023-07-22T17:34:50.768Z,18.20
2023-07-22T17:37:17.109Z,18.19
2023-07-22T17:39:43.465Z,17.97
2023-07-22T17:42:09.821Z,18.07
2023-07-22T17:44:36.190Z,18.35
2023-07-22T17:47:02.847Z,18.50
2023-07-22T17:49:29.268Z,18.50
2023-07-22T17:51:55.687Z,18.08
2023-07-22T17:54:22.054Z,18.28
2023-07-22T17:56:49.149Z,18.17
2023-07-22T17:59:15.510Z,18.31
2023-07-22T18:01:41.884Z,18.59
2023-07-22T18:04:08.232Z,18.37
2023-07-22T18:06:34.612Z,18.46
2023-07-22T18:09:00.996Z,18.53
2023-07-22T18:11:27.739Z,18.51
2023-07-22T18:13:55.405Z,18.52
2023-07-22T18:16:21.952Z,18.37
2023-07-22T18:18:48.329Z,18.35
2023-07-22T18:21:14.693Z,18.30
2023-07-22T18:23:41.071Z,18.01
2023-07-22T18:26:07.539Z,17.95
2023-07-22T18:28:33.976Z,17.90
2023-07-22T18:31:00.438Z,17.92
2023-07-22T18:33:26.832Z,17.89
2023-07-22T18:35:53.286Z,17.25
2023-07-22T18:38:20.219Z,17.30
2023-07-22T18:40:47.368Z,17.84
2023-07-22T18:43:13.955Z,17.52
2023-07-22T18:45:40.531Z,17.69
2023-07-22T18:48:06.948Z,17.56
2023-07-22T18:50:33.813Z,17.64
2023-07-22T18:53:03.172Z,17.53
2023-07-22T18:55:29.648Z,17.68
2023-07-22T18:57:56.000Z,17.60
2023-07-22T19:00:22.432Z,17.46
2023-07-22T19:02:51.796Z,17.77
2023-07-22T19:05:18.250Z,17.41
2023-07-22T19:07:44.620Z,17.32
2023-07-22T19:10:11.482Z,17.64
2023-07-22T19:12:37.848Z,17.54
2023-07-22T19:15:04.926Z,17.71
2023-07-22T19:17:31.318Z,17.87
2023-07-22T19:19:57.665Z,17.65
2023-07-22T19:22:24.024Z,17.90
2023-07-22T19:24:50.466Z,18.07
2023-07-22T19:27:16.900Z,17.76
2023-07-22T19:29:44.023Z,17.41
2023-07-22T19:32:10.512Z,17.44
2023-07-22T19:34:36.958Z,17.77
2023-07-22T19:37:03.513Z,17.71
2023-07-22T19:39:29.902Z,17.29
2023-07-22T19:41:56.287Z,17.48
2023-07-22T19:44:22.683Z,17.63
2023-07-22T19:46:49.113Z,17.48
2023-07-22T19:49:15.493Z,17.26
2023-07-22T19:51:41.852Z,17.20
2023-07-22T19:54:08.265Z,16.97
2023-07-22T19:56:34.717Z,16.92
2023-07-22T19:59:01.177Z,17.14
2023-07-22T20:01:27.782Z,17.40
2023-07-22T20:03:54.445Z,17.24
2023-07-22T20:06:20.857Z,17.51
2023-07-22T20:08:52.680Z,17.29
2023-07-22T20:11:19.922Z,17.22
2023-07-22T20:13:46.345Z,17.32
2023-07-22T20:16:12.717Z,17.46
2023-07-22T20:18:39.221Z,17.69
2023-07-22T20:21:05.642Z,17.40
2023-07-22T20:23:32.043Z,17.55
2023-07-22T20:25:59.367Z,17.64
2023-07-22T20:28:25.832Z,17.64
2023-07-22T20:30:52.253Z,17.64
2023-07-22T20:33:18.614Z,17.66
2023-07-22T20:35:45.047Z,17.71
2023-07-22T20:38:11.464Z,17.65
2023-07-22T20:40:37.858Z,17.39
2023-07-22T20:43:04.190Z,17.59
2023-07-22T20:45:30.585Z,17.66
2023-07-22T20:47:57.075Z,17.84
2023-07-22T20:50:23.455Z,17.83
2023-07-22T20:52:49.845Z,17.70
2023-07-22T20:55:16.423Z,17.78
2023-07-22T20:57:42.818Z,17.64
2023-07-22T21:00:09.690Z,17.70
2023-07-22T21:02:36.257Z,17.42
2023-07-22T21:05:02.872Z,17.45
2023-07-22T21:07:29.234Z,17.31
2023-07-22T21:09:55.628Z,17.26
2023-07-22T21:12:22.156Z,17.42
2023-07-22T21:14:48.534Z,17.53
2023-07-22T21:17:15.442Z,17.30
2023-07-22T21:19:41.897Z,17.35
2023-07-22T21:22:08.265Z,17.18
2023-07-22T21:24:34.828Z,17.42
2023-07-22T21:27:01.333Z,17.40
2023-07-22T21:29:27.786Z,17.22
2023-07-22T21:31:54.133Z,17.25
2023-07-22T21:34:20.522Z,17.34
2023-07-22T21:36:47.000Z,17.06
2023-07-22T21:39:13.680Z,17.03
2023-07-22T21:41:40.218Z,17.15
2023-07-22T21:44:06.563Z,16.98
2023-07-22T21:46:33.098Z,17.11
2023-07-22T21:48:59.425Z,17.12
2023-07-22T21:51:26.382Z,17.28
2023-07-22T21:53:52.982Z,16.86
2023-07-22T21:56:19.410Z,16.73
2023-07-22T21:58:45.755Z,16.99
2023-07-22T22:01:12.251Z,16.52
2023-07-22T22:03:38.621Z,16.72
2023-07-22T22:06:05.019Z,16.73
2023-07-22T22:08:31.425Z,16.67
2023-07-22T22:10:57.852Z,16.81
2023-07-22T22:13:26.141Z,16.78
2023-07-22T22:15:52.772Z,16.92
2023-07-22T22:18:19.181Z,16.72
2023-07-22T22:20:45.567Z,16.79
2023-07-22T22:23:14.161Z,16.90
2023-07-22T22:25:40.730Z,16.72
2023-07-22T22:28:07.213Z,16.51
2023-07-22T22:30:33.651Z,16.71
2023-07-22T22:33:00.143Z,16.77
2023-07-22T22:38:45.257Z,16.73
2023-07-22T22:48:30.798Z,16.57
2023-07-22T22:51:53.209Z,16.59
2023-07-22T22:59:30.061Z,16.39
2023-07-22T23:06:48.760Z,16.74
2023-07-22T23:12:51.384Z,16.71
2023-07-22T23:22:57.807Z,16.94
2023-07-22T23:26:08.421Z,16.99
